Aeroporto :







RITROVATECI SU...

 
LOGIN :

Iscrizione | Disclaimer

   EN    FR    IT 

 









Sommario :    VFR   VFR Marginale   IFR   IFR Intensivo   IFR Molto Intensivo
Visibilità : 
Base nubi : 
>= 8 km
>= 3000ft
5 / 8 km
1000 / 3000 ft
1500m / 5 km
500 / 1000 ft
800 / 1500m
200 / 500 ft
< 800m
< 200 ft
Simboli :   Temporali  Nebbia  Neve Forte  Precipitazioni Forti  Vento > 20 kt






- Altitudine del aeroporto : 10 ft
- Codice IATA : ORG


SMZO - Zorg en Hoop

ULTIMO METAR :
  • 271600Z 09010KT 9999 SCT025 30/24 Q1012 NOSIG

METARs OBSOLETI :
  • 271500Z 05012KT 8000 SCT020 SCT030 29/24 Q1013 NOSIG
  • 271400Z 07006KT 9999 SCT025 29/24 Q1014 NOSIG

TAF TAF SMZO
Valido dal 27 a 12 ore il 28 a 12 ore UTC


271000Z 2712/2812 09008KT 9999 SCT015 SCT030 TX30/2716Z TN24/2809Z
TEMPO 2717/2722 VRB12G24KT 3000 SHRA/TSRA FEW015CB BKN018
FIR SMPM / Sudamerica



MetMap, La meteo Aeronautica in un colpo d'occhio ! - Copyright ORBIFLY Dicembre 2007 - Disclaimer

ORBIFLY MET'MAP TEAM :

Programmazione e sviluppo : Alexandra Zaïnal
Concezione : Baudouin d'Aumeries
Aiuto per la programmazione : Marc-Olivier Méhu
Supporto tecnico e logistico : Manuel Goepfert
Aiuto per la traduzione : Arnaldo La Scala

Contatto : metmap@orbifly.com




FONTI E CREDITI :

   NOAA